sensor_id;sensor_type;location;lat;lon;timestamp;P1;durP1;ratioP1;P2;durP2;ratioP2
48925;SDS011;39838;59.938;30.642;2022-07-31T00:01:52;8.98;;;5.38;;
48925;SDS011;39838;59.938;30.642;2022-07-31T00:04:19;9.10;;;5.43;;
48925;SDS011;39838;59.938;30.642;2022-07-31T00:06:49;9.20;;;5.65;;
48925;SDS011;39838;59.938;30.642;2022-07-31T00:09:18;10.43;;;5.70;;
48925;SDS011;39838;59.938;30.642;2022-07-31T00:11:45;10.48;;;5.30;;
48925;SDS011;39838;59.938;30.642;2022-07-31T00:14:12;13.18;;;6.30;;
48925;SDS011;39838;59.938;30.642;2022-07-31T00:16:39;11.02;;;5.45;;
48925;SDS011;39838;59.938;30.642;2022-07-31T00:19:06;10.45;;;5.35;;
48925;SDS011;39838;59.938;30.642;2022-07-31T00:21:33;11.07;;;6.50;;
48925;SDS011;39838;59.938;30.642;2022-07-31T00:24:00;14.00;;;6.50;;
48925;SDS011;39838;59.938;30.642;2022-07-31T00:26:29;9.65;;;6.07;;
48925;SDS011;39838;59.938;30.642;2022-07-31T00:28:56;8.95;;;6.40;;
48925;SDS011;39838;59.938;30.642;2022-07-31T00:31:23;11.77;;;7.07;;
48925;SDS011;39838;59.938;30.642;2022-07-31T00:33:50;11.32;;;7.70;;
48925;SDS011;39838;59.938;30.642;2022-07-31T00:36:18;11.63;;;7.68;;
48925;SDS011;39838;59.938;30.642;2022-07-31T00:38:45;15.02;;;7.97;;
48925;SDS011;39838;59.938;30.642;2022-07-31T00:41:12;18.85;;;8.23;;
48925;SDS011;39838;59.938;30.642;2022-07-31T00:43:40;11.82;;;7.95;;
48925;SDS011;39838;59.938;30.642;2022-07-31T00:46:07;15.27;;;8.23;;
48925;SDS011;39838;59.938;30.642;2022-07-31T00:48:35;12.30;;;8.48;;
48925;SDS011;39838;59.938;30.642;2022-07-31T00:51:02;15.52;;;8.88;;
48925;SDS011;39838;59.938;30.642;2022-07-31T00:53:29;12.45;;;8.60;;
48925;SDS011;39838;59.938;30.642;2022-07-31T00:55:56;12.85;;;8.60;;
48925;SDS011;39838;59.938;30.642;2022-07-31T00:58:23;13.57;;;7.85;;
48925;SDS011;39838;59.938;30.642;2022-07-31T01:00:52;12.57;;;8.30;;
48925;SDS011;39838;59.938;30.642;2022-07-31T01:03:19;14.75;;;7.90;;
48925;SDS011;39838;59.938;30.642;2022-07-31T01:05:46;13.25;;;7.82;;
48925;SDS011;39838;59.938;30.642;2022-07-31T01:08:13;11.13;;;7.82;;
48925;SDS011;39838;59.938;30.642;2022-07-31T01:10:43;13.25;;;7.57;;
48925;SDS011;39838;59.938;30.642;2022-07-31T01:15:47;12.23;;;7.60;;
48925;SDS011;39838;59.938;30.642;2022-07-31T01:18:17;12.73;;;6.95;;
48925;SDS011;39838;59.938;30.642;2022-07-31T01:20:44;10.98;;;6.53;;
48925;SDS011;39838;59.938;30.642;2022-07-31T01:23:16;11.85;;;6.50;;
48925;SDS011;39838;59.938;30.642;2022-07-31T01:25:56;11.27;;;6.70;;
48925;SDS011;39838;59.938;30.642;2022-07-31T01:28:38;12.85;;;6.40;;
48925;SDS011;39838;59.938;30.642;2022-07-31T01:31:15;12.82;;;6.68;;
48925;SDS011;39838;59.938;30.642;2022-07-31T01:33:47;8.90;;;6.57;;
48925;SDS011;39838;59.938;30.642;2022-07-31T01:36:18;12.13;;;6.85;;
48925;SDS011;39838;59.938;30.642;2022-07-31T01:38:49;11.25;;;6.50;;
48925;SDS011;39838;59.938;30.642;2022-07-31T01:41:19;10.50;;;6.55;;
48925;SDS011;39838;59.938;30.642;2022-07-31T01:43:52;9.00;;;6.28;;
48925;SDS011;39838;59.938;30.642;2022-07-31T01:46:21;9.82;;;6.45;;
48925;SDS011;39838;59.938;30.642;2022-07-31T01:48:50;13.70;;;6.03;;
48925;SDS011;39838;59.938;30.642;2022-07-31T01:51:20;11.00;;;6.25;;
48925;SDS011;39838;59.938;30.642;2022-07-31T01:53:49;10.52;;;6.65;;
48925;SDS011;39838;59.938;30.642;2022-07-31T01:56:17;11.82;;;7.07;;
48925;SDS011;39838;59.938;30.642;2022-07-31T01:58:45;10.10;;;6.90;;
48925;SDS011;39838;59.938;30.642;2022-07-31T02:01:15;11.45;;;7.38;;
48925;SDS011;39838;59.938;30.642;2022-07-31T02:03:43;13.05;;;7.55;;
48925;SDS011;39838;59.938;30.642;2022-07-31T02:06:12;13.70;;;7.40;;
48925;SDS011;39838;59.938;30.642;2022-07-31T02:08:41;10.65;;;6.53;;
48925;SDS011;39838;59.938;30.642;2022-07-31T02:11:10;14.23;;;7.68;;
48925;SDS011;39838;59.938;30.642;2022-07-31T02:13:40;12.05;;;6.88;;
48925;SDS011;39838;59.938;30.642;2022-07-31T02:16:07;14.10;;;7.00;;
48925;SDS011;39838;59.938;30.642;2022-07-31T02:18:36;14.10;;;6.53;;
48925;SDS011;39838;59.938;30.642;2022-07-31T02:21:03;11.07;;;6.70;;
48925;SDS011;39838;59.938;30.642;2022-07-31T02:23:30;9.73;;;6.35;;
48925;SDS011;39838;59.938;30.642;2022-07-31T02:25:58;11.63;;;6.53;;
48925;SDS011;39838;59.938;30.642;2022-07-31T02:28:27;12.45;;;6.30;;
48925;SDS011;39838;59.938;30.642;2022-07-31T02:30:56;14.75;;;6.00;;
48925;SDS011;39838;59.938;30.642;2022-07-31T02:33:25;14.52;;;5.70;;
48925;SDS011;39838;59.938;30.642;2022-07-31T02:35:55;10.32;;;5.68;;
48925;SDS011;39838;59.938;30.642;2022-07-31T02:38:25;10.07;;;5.80;;
48925;SDS011;39838;59.938;30.642;2022-07-31T02:40:54;17.30;;;6.13;;
48925;SDS011;39838;59.938;30.642;2022-07-31T02:43:24;11.27;;;6.10;;
48925;SDS011;39838;59.938;30.642;2022-07-31T02:45:53;12.30;;;5.93;;
48925;SDS011;39838;59.938;30.642;2022-07-31T02:48:21;14.82;;;6.03;;
48925;SDS011;39838;59.938;30.642;2022-07-31T02:50:50;11.40;;;6.25;;
48925;SDS011;39838;59.938;30.642;2022-07-31T02:53:19;14.15;;;6.20;;
48925;SDS011;39838;59.938;30.642;2022-07-31T02:55:46;10.48;;;5.72;;
48925;SDS011;39838;59.938;30.642;2022-07-31T02:58:14;10.05;;;5.35;;
48925;SDS011;39838;59.938;30.642;2022-07-31T03:00:41;12.95;;;6.03;;
48925;SDS011;39838;59.938;30.642;2022-07-31T03:03:08;10.65;;;5.72;;
48925;SDS011;39838;59.938;30.642;2022-07-31T03:05:35;10.30;;;5.55;;
48925;SDS011;39838;59.938;30.642;2022-07-31T03:08:02;11.50;;;5.75;;
48925;SDS011;39838;59.938;30.642;2022-07-31T03:10:31;12.30;;;5.60;;
48925;SDS011;39838;59.938;30.642;2022-07-31T03:12:58;11.95;;;5.57;;
48925;SDS011;39838;59.938;30.642;2022-07-31T03:15:28;16.75;;;5.18;;
48925;SDS011;39838;59.938;30.642;2022-07-31T03:17:57;12.27;;;5.20;;
48925;SDS011;39838;59.938;30.642;2022-07-31T03:20:25;11.63;;;5.80;;
48925;SDS011;39838;59.938;30.642;2022-07-31T03:22:53;8.77;;;5.07;;
48925;SDS011;39838;59.938;30.642;2022-07-31T03:25:21;12.32;;;5.32;;
48925;SDS011;39838;59.938;30.642;2022-07-31T03:27:50;11.55;;;5.30;;
48925;SDS011;39838;59.938;30.642;2022-07-31T03:30:18;10.82;;;5.13;;
48925;SDS011;39838;59.938;30.642;2022-07-31T03:32:49;9.07;;;5.30;;
48925;SDS011;39838;59.938;30.642;2022-07-31T03:35:16;11.00;;;5.00;;
48925;SDS011;39838;59.938;30.642;2022-07-31T03:37:44;13.23;;;5.20;;
48925;SDS011;39838;59.938;30.642;2022-07-31T03:40:11;10.20;;;4.80;;
48925;SDS011;39838;59.938;30.642;2022-07-31T03:42:39;10.68;;;5.28;;
48925;SDS011;39838;59.938;30.642;2022-07-31T03:45:09;12.70;;;5.38;;
48925;SDS011;39838;59.938;30.642;2022-07-31T03:47:37;9.40;;;4.60;;
48925;SDS011;39838;59.938;30.642;2022-07-31T03:50:05;12.10;;;4.85;;
48925;SDS011;39838;59.938;30.642;2022-07-31T03:52:34;9.27;;;4.65;;
48925;SDS011;39838;59.938;30.642;2022-07-31T03:55:02;11.70;;;4.95;;
48925;SDS011;39838;59.938;30.642;2022-07-31T03:57:30;12.23;;;4.65;;
48925;SDS011;39838;59.938;30.642;2022-07-31T03:59:59;12.82;;;5.30;;
48925;SDS011;39838;59.938;30.642;2022-07-31T04:02:29;11.25;;;5.15;;
48925;SDS011;39838;59.938;30.642;2022-07-31T04:04:56;7.85;;;4.63;;
48925;SDS011;39838;59.938;30.642;2022-07-31T04:07:23;10.23;;;4.90;;
48925;SDS011;39838;59.938;30.642;2022-07-31T04:09:50;11.63;;;4.60;;
48925;SDS011;39838;59.938;30.642;2022-07-31T04:12:18;12.73;;;4.70;;
48925;SDS011;39838;59.938;30.642;2022-07-31T04:14:45;8.93;;;4.57;;
48925;SDS011;39838;59.938;30.642;2022-07-31T04:17:12;9.73;;;5.53;;
48925;SDS011;39838;59.938;30.642;2022-07-31T04:19:41;11.80;;;5.47;;
48925;SDS011;39838;59.938;30.642;2022-07-31T04:22:08;15.10;;;4.60;;
48925;SDS011;39838;59.938;30.642;2022-07-31T04:24:35;8.95;;;5.00;;
48925;SDS011;39838;59.938;30.642;2022-07-31T04:27:03;11.65;;;4.57;;
48925;SDS011;39838;59.938;30.642;2022-07-31T04:29:30;8.07;;;4.65;;
48925;SDS011;39838;59.938;30.642;2022-07-31T04:31:57;13.60;;;4.60;;
48925;SDS011;39838;59.938;30.642;2022-07-31T04:34:24;9.63;;;4.70;;
48925;SDS011;39838;59.938;30.642;2022-07-31T04:36:52;9.70;;;5.30;;
48925;SDS011;39838;59.938;30.642;2022-07-31T04:39:19;11.48;;;5.22;;
48925;SDS011;39838;59.938;30.642;2022-07-31T04:41:47;9.55;;;5.60;;
48925;SDS011;39838;59.938;30.642;2022-07-31T04:44:14;11.82;;;5.20;;
48925;SDS011;39838;59.938;30.642;2022-07-31T04:46:41;9.40;;;5.03;;
48925;SDS011;39838;59.938;30.642;2022-07-31T04:49:08;8.68;;;4.82;;
48925;SDS011;39838;59.938;30.642;2022-07-31T04:51:39;10.88;;;5.00;;
48925;SDS011;39838;59.938;30.642;2022-07-31T04:54:08;10.32;;;5.18;;
48925;SDS011;39838;59.938;30.642;2022-07-31T04:56:36;8.25;;;4.68;;
48925;SDS011;39838;59.938;30.642;2022-07-31T04:59:07;8.27;;;4.63;;
48925;SDS011;39838;59.938;30.642;2022-07-31T05:01:35;9.23;;;4.80;;
48925;SDS011;39838;59.938;30.642;2022-07-31T05:04:03;8.77;;;4.88;;
48925;SDS011;39838;59.938;30.642;2022-07-31T05:06:34;10.90;;;5.15;;
48925;SDS011;39838;59.938;30.642;2022-07-31T05:09:02;12.57;;;6.00;;
48925;SDS011;39838;59.938;30.642;2022-07-31T05:11:32;10.70;;;5.05;;
48925;SDS011;39838;59.938;30.642;2022-07-31T05:14:01;12.98;;;5.78;;
48925;SDS011;39838;59.938;30.642;2022-07-31T05:16:30;8.82;;;5.55;;
48925;SDS011;39838;59.938;30.642;2022-07-31T05:18:57;10.88;;;4.90;;
48925;SDS011;39838;59.938;30.642;2022-07-31T05:21:25;10.35;;;5.00;;
48925;SDS011;39838;59.938;30.642;2022-07-31T05:23:54;11.20;;;5.18;;
48925;SDS011;39838;59.938;30.642;2022-07-31T05:26:22;8.98;;;4.90;;
48925;SDS011;39838;59.938;30.642;2022-07-31T05:28:52;8.98;;;4.57;;
48925;SDS011;39838;59.938;30.642;2022-07-31T05:31:20;13.60;;;5.15;;
48925;SDS011;39838;59.938;30.642;2022-07-31T05:33:48;9.40;;;4.72;;
48925;SDS011;39838;59.938;30.642;2022-07-31T05:36:16;9.95;;;4.72;;
48925;SDS011;39838;59.938;30.642;2022-07-31T05:38:43;9.50;;;4.50;;
48925;SDS011;39838;59.938;30.642;2022-07-31T05:41:10;10.13;;;4.82;;
48925;SDS011;39838;59.938;30.642;2022-07-31T05:43:38;11.48;;;5.10;;
48925;SDS011;39838;59.938;30.642;2022-07-31T05:46:07;10.98;;;4.90;;
48925;SDS011;39838;59.938;30.642;2022-07-31T05:48:34;7.60;;;4.30;;
48925;SDS011;39838;59.938;30.642;2022-07-31T05:51:01;10.55;;;4.45;;
48925;SDS011;39838;59.938;30.642;2022-07-31T05:53:28;9.23;;;4.78;;
48925;SDS011;39838;59.938;30.642;2022-07-31T05:55:55;8.90;;;4.30;;
48925;SDS011;39838;59.938;30.642;2022-07-31T05:58:22;10.48;;;4.38;;
48925;SDS011;39838;59.938;30.642;2022-07-31T06:00:49;7.93;;;4.30;;
48925;SDS011;39838;59.938;30.642;2022-07-31T06:03:22;8.43;;;4.30;;
48925;SDS011;39838;59.938;30.642;2022-07-31T06:05:52;5.45;;;3.40;;
48925;SDS011;39838;59.938;30.642;2022-07-31T06:08:19;5.78;;;3.55;;
48925;SDS011;39838;59.938;30.642;2022-07-31T06:10:46;7.20;;;3.80;;
48925;SDS011;39838;59.938;30.642;2022-07-31T06:13:13;5.60;;;3.88;;
48925;SDS011;39838;59.938;30.642;2022-07-31T06:15:41;7.75;;;4.25;;
48925;SDS011;39838;59.938;30.642;2022-07-31T06:18:08;6.22;;;3.33;;
48925;SDS011;39838;59.938;30.642;2022-07-31T06:20:37;6.97;;;3.30;;
48925;SDS011;39838;59.938;30.642;2022-07-31T06:23:04;8.00;;;3.97;;
48925;SDS011;39838;59.938;30.642;2022-07-31T06:25:31;6.28;;;3.55;;
48925;SDS011;39838;59.938;30.642;2022-07-31T06:27:58;5.18;;;3.35;;
48925;SDS011;39838;59.938;30.642;2022-07-31T06:30:25;5.47;;;3.30;;
48925;SDS011;39838;59.938;30.642;2022-07-31T06:32:52;4.85;;;2.55;;
48925;SDS011;39838;59.938;30.642;2022-07-31T06:35:20;4.05;;;2.70;;
48925;SDS011;39838;59.938;30.642;2022-07-31T06:37:48;4.10;;;2.85;;
48925;SDS011;39838;59.938;30.642;2022-07-31T06:40:15;5.13;;;2.90;;
48925;SDS011;39838;59.938;30.642;2022-07-31T06:42:42;5.43;;;2.70;;
48925;SDS011;39838;59.938;30.642;2022-07-31T06:45:09;5.63;;;2.50;;
48925;SDS011;39838;59.938;30.642;2022-07-31T06:47:37;5.03;;;2.20;;
48925;SDS011;39838;59.938;30.642;2022-07-31T06:50:04;3.10;;;2.35;;
48925;SDS011;39838;59.938;30.642;2022-07-31T06:52:32;3.60;;;2.55;;
48925;SDS011;39838;59.938;30.642;2022-07-31T06:55:00;6.32;;;2.80;;
48925;SDS011;39838;59.938;30.642;2022-07-31T06:57:27;5.38;;;2.70;;
48925;SDS011;39838;59.938;30.642;2022-07-31T06:59:55;3.92;;;2.50;;
48925;SDS011;39838;59.938;30.642;2022-07-31T07:02:22;4.75;;;2.60;;
48925;SDS011;39838;59.938;30.642;2022-07-31T07:04:49;4.85;;;2.75;;
48925;SDS011;39838;59.938;30.642;2022-07-31T07:07:16;4.43;;;2.55;;
48925;SDS011;39838;59.938;30.642;2022-07-31T07:09:43;3.63;;;2.30;;
48925;SDS011;39838;59.938;30.642;2022-07-31T07:12:12;3.92;;;2.45;;
48925;SDS011;39838;59.938;30.642;2022-07-31T07:14:39;4.72;;;2.80;;
48925;SDS011;39838;59.938;30.642;2022-07-31T07:17:06;3.83;;;2.47;;
48925;SDS011;39838;59.938;30.642;2022-07-31T07:19:33;3.95;;;2.40;;
48925;SDS011;39838;59.938;30.642;2022-07-31T07:22:00;4.13;;;2.53;;
48925;SDS011;39838;59.938;30.642;2022-07-31T07:24:27;5.03;;;2.25;;
48925;SDS011;39838;59.938;30.642;2022-07-31T07:26:54;3.63;;;2.40;;
48925;SDS011;39838;59.938;30.642;2022-07-31T07:29:22;3.38;;;2.40;;
48925;SDS011;39838;59.938;30.642;2022-07-31T07:31:49;3.97;;;2.50;;
48925;SDS011;39838;59.938;30.642;2022-07-31T07:34:16;4.18;;;2.53;;
48925;SDS011;39838;59.938;30.642;2022-07-31T07:36:43;5.28;;;2.40;;
48925;SDS011;39838;59.938;30.642;2022-07-31T07:39:11;3.92;;;2.33;;
48925;SDS011;39838;59.938;30.642;2022-07-31T07:41:38;3.50;;;2.58;;
48925;SDS011;39838;59.938;30.642;2022-07-31T07:44:05;4.70;;;2.53;;
48925;SDS011;39838;59.938;30.642;2022-07-31T07:46:34;4.30;;;2.40;;
48925;SDS011;39838;59.938;30.642;2022-07-31T07:49:02;4.47;;;2.88;;
48925;SDS011;39838;59.938;30.642;2022-07-31T07:51:29;5.60;;;3.15;;
48925;SDS011;39838;59.938;30.642;2022-07-31T07:53:56;5.32;;;2.70;;
48925;SDS011;39838;59.938;30.642;2022-07-31T07:56:25;4.75;;;2.72;;
48925;SDS011;39838;59.938;30.642;2022-07-31T07:58:52;5.32;;;2.63;;
48925;SDS011;39838;59.938;30.642;2022-07-31T08:01:20;5.45;;;2.88;;
48925;SDS011;39838;59.938;30.642;2022-07-31T08:03:48;4.97;;;2.60;;
48925;SDS011;39838;59.938;30.642;2022-07-31T08:06:16;3.33;;;2.53;;
48925;SDS011;39838;59.938;30.642;2022-07-31T08:08:43;4.70;;;2.38;;
48925;SDS011;39838;59.938;30.642;2022-07-31T08:11:10;4.10;;;2.60;;
48925;SDS011;39838;59.938;30.642;2022-07-31T08:13:37;4.20;;;2.35;;
48925;SDS011;39838;59.938;30.642;2022-07-31T08:16:04;3.38;;;2.60;;
48925;SDS011;39838;59.938;30.642;2022-07-31T08:18:31;5.07;;;2.60;;
48925;SDS011;39838;59.938;30.642;2022-07-31T08:21:00;5.80;;;2.85;;
48925;SDS011;39838;59.938;30.642;2022-07-31T08:23:27;5.35;;;2.63;;
48925;SDS011;39838;59.938;30.642;2022-07-31T08:25:54;5.70;;;2.40;;
48925;SDS011;39838;59.938;30.642;2022-07-31T08:28:23;7.45;;;2.45;;
48925;SDS011;39838;59.938;30.642;2022-07-31T08:30:50;4.90;;;2.35;;
48925;SDS011;39838;59.938;30.642;2022-07-31T08:33:18;6.65;;;2.33;;
48925;SDS011;39838;59.938;30.642;2022-07-31T08:35:45;3.83;;;2.40;;
48925;SDS011;39838;59.938;30.642;2022-07-31T08:38:15;4.53;;;2.50;;
48925;SDS011;39838;59.938;30.642;2022-07-31T08:40:45;5.70;;;2.42;;
48925;SDS011;39838;59.938;30.642;2022-07-31T08:43:12;5.72;;;2.55;;
48925;SDS011;39838;59.938;30.642;2022-07-31T08:45:40;6.82;;;2.75;;
48925;SDS011;39838;59.938;30.642;2022-07-31T08:48:08;5.60;;;2.70;;
48925;SDS011;39838;59.938;30.642;2022-07-31T08:50:37;5.18;;;2.65;;
48925;SDS011;39838;59.938;30.642;2022-07-31T08:53:05;8.45;;;2.53;;
48925;SDS011;39838;59.938;30.642;2022-07-31T08:55:35;5.68;;;2.60;;
48925;SDS011;39838;59.938;30.642;2022-07-31T08:58:03;7.43;;;2.55;;
48925;SDS011;39838;59.938;30.642;2022-07-31T09:00:30;6.28;;;2.90;;
48925;SDS011;39838;59.938;30.642;2022-07-31T09:02:58;8.30;;;2.80;;
48925;SDS011;39838;59.938;30.642;2022-07-31T09:05:25;3.88;;;2.28;;
48925;SDS011;39838;59.938;30.642;2022-07-31T09:07:53;4.80;;;2.13;;
48925;SDS011;39838;59.938;30.642;2022-07-31T09:10:21;4.32;;;2.30;;
48925;SDS011;39838;59.938;30.642;2022-07-31T09:12:51;3.25;;;2.20;;
48925;SDS011;39838;59.938;30.642;2022-07-31T09:15:19;5.32;;;2.63;;
48925;SDS011;39838;59.938;30.642;2022-07-31T09:17:48;3.22;;;2.20;;
48925;SDS011;39838;59.938;30.642;2022-07-31T09:20:16;3.63;;;2.10;;
48925;SDS011;39838;59.938;30.642;2022-07-31T09:22:45;3.00;;;2.33;;
48925;SDS011;39838;59.938;30.642;2022-07-31T09:25:13;5.57;;;2.42;;
48925;SDS011;39838;59.938;30.642;2022-07-31T09:27:43;4.55;;;2.17;;
48925;SDS011;39838;59.938;30.642;2022-07-31T09:30:13;5.18;;;2.10;;
48925;SDS011;39838;59.938;30.642;2022-07-31T09:32:41;5.03;;;2.47;;
48925;SDS011;39838;59.938;30.642;2022-07-31T09:35:10;3.67;;;2.20;;
48925;SDS011;39838;59.938;30.642;2022-07-31T09:37:39;5.45;;;2.78;;
48925;SDS011;39838;59.938;30.642;2022-07-31T09:40:07;3.05;;;2.33;;
48925;SDS011;39838;59.938;30.642;2022-07-31T09:42:38;6.15;;;2.70;;
48925;SDS011;39838;59.938;30.642;2022-07-31T09:45:17;5.32;;;2.30;;
48925;SDS011;39838;59.938;30.642;2022-07-31T09:47:45;6.53;;;2.53;;
48925;SDS011;39838;59.938;30.642;2022-07-31T09:50:12;3.42;;;2.40;;
48925;SDS011;39838;59.938;30.642;2022-07-31T09:52:56;5.30;;;2.10;;
48925;SDS011;39838;59.938;30.642;2022-07-31T09:55:24;3.17;;;1.70;;
48925;SDS011;39838;59.938;30.642;2022-07-31T09:57:51;5.75;;;2.40;;
48925;SDS011;39838;59.938;30.642;2022-07-31T10:00:20;3.58;;;2.20;;
48925;SDS011;39838;59.938;30.642;2022-07-31T10:02:49;3.97;;;2.00;;
48925;SDS011;39838;59.938;30.642;2022-07-31T10:05:18;5.40;;;2.60;;
48925;SDS011;39838;59.938;30.642;2022-07-31T10:07:49;3.97;;;2.33;;
48925;SDS011;39838;59.938;30.642;2022-07-31T10:10:17;5.38;;;2.30;;
48925;SDS011;39838;59.938;30.642;2022-07-31T10:12:46;4.35;;;2.60;;
48925;SDS011;39838;59.938;30.642;2022-07-31T10:15:16;5.15;;;2.53;;
48925;SDS011;39838;59.938;30.642;2022-07-31T10:17:46;5.45;;;2.65;;
48925;SDS011;39838;59.938;30.642;2022-07-31T10:20:17;4.35;;;2.33;;
48925;SDS011;39838;59.938;30.642;2022-07-31T10:22:47;5.03;;;2.65;;
48925;SDS011;39838;59.938;30.642;2022-07-31T10:25:20;4.38;;;2.53;;
48925;SDS011;39838;59.938;30.642;2022-07-31T10:27:49;4.95;;;2.80;;
48925;SDS011;39838;59.938;30.642;2022-07-31T10:30:18;5.85;;;2.90;;
48925;SDS011;39838;59.938;30.642;2022-07-31T10:32:47;4.85;;;2.78;;
48925;SDS011;39838;59.938;30.642;2022-07-31T10:35:15;9.95;;;2.80;;
48925;SDS011;39838;59.938;30.642;2022-07-31T10:37:44;3.03;;;2.33;;
48925;SDS011;39838;59.938;30.642;2022-07-31T10:40:21;4.55;;;2.40;;
48925;SDS011;39838;59.938;30.642;2022-07-31T10:42:56;6.18;;;2.50;;
48925;SDS011;39838;59.938;30.642;2022-07-31T10:45:44;6.32;;;2.53;;
48925;SDS011;39838;59.938;30.642;2022-07-31T10:48:13;4.67;;;2.57;;
48925;SDS011;39838;59.938;30.642;2022-07-31T10:50:40;5.00;;;2.58;;
48925;SDS011;39838;59.938;30.642;2022-07-31T10:53:08;3.28;;;2.33;;
48925;SDS011;39838;59.938;30.642;2022-07-31T10:55:35;5.90;;;2.30;;
48925;SDS011;39838;59.938;30.642;2022-07-31T10:58:06;3.63;;;2.42;;
48925;SDS011;39838;59.938;30.642;2022-07-31T11:00:34;3.20;;;2.03;;
48925;SDS011;39838;59.938;30.642;2022-07-31T11:05:52;3.75;;;2.40;;
48925;SDS011;39838;59.938;30.642;2022-07-31T11:08:20;10.80;;;2.58;;
48925;SDS011;39838;59.938;30.642;2022-07-31T11:10:48;3.72;;;2.00;;
48925;SDS011;39838;59.938;30.642;2022-07-31T11:13:17;4.20;;;2.60;;
48925;SDS011;39838;59.938;30.642;2022-07-31T11:15:45;6.97;;;4.30;;
48925;SDS011;39838;59.938;30.642;2022-07-31T11:18:13;5.63;;;3.15;;
48925;SDS011;39838;59.938;30.642;2022-07-31T11:20:43;4.75;;;2.90;;
48925;SDS011;39838;59.938;30.642;2022-07-31T11:23:12;4.13;;;2.42;;
48925;SDS011;39838;59.938;30.642;2022-07-31T11:25:42;3.85;;;2.65;;
48925;SDS011;39838;59.938;30.642;2022-07-31T11:28:12;2.67;;;2.08;;
48925;SDS011;39838;59.938;30.642;2022-07-31T11:30:46;4.65;;;1.83;;
48925;SDS011;39838;59.938;30.642;2022-07-31T11:33:15;4.55;;;2.10;;
48925;SDS011;39838;59.938;30.642;2022-07-31T11:35:43;6.25;;;2.30;;
48925;SDS011;39838;59.938;30.642;2022-07-31T11:38:10;3.80;;;2.40;;
48925;SDS011;39838;59.938;30.642;2022-07-31T11:40:37;3.58;;;2.17;;
48925;SDS011;39838;59.938;30.642;2022-07-31T11:43:06;5.07;;;2.28;;
48925;SDS011;39838;59.938;30.642;2022-07-31T11:45:44;2.95;;;2.10;;
48925;SDS011;39838;59.938;30.642;2022-07-31T11:48:13;3.58;;;2.40;;
48925;SDS011;39838;59.938;30.642;2022-07-31T11:50:41;8.93;;;3.10;;
48925;SDS011;39838;59.938;30.642;2022-07-31T11:53:11;4.30;;;2.50;;
48925;SDS011;39838;59.938;30.642;2022-07-31T11:55:45;8.93;;;3.33;;
48925;SDS011;39838;59.938;30.642;2022-07-31T11:58:14;5.55;;;2.40;;
48925;SDS011;39838;59.938;30.642;2022-07-31T12:00:45;9.07;;;2.33;;
48925;SDS011;39838;59.938;30.642;2022-07-31T12:03:14;2.60;;;1.85;;
48925;SDS011;39838;59.938;30.642;2022-07-31T12:05:44;5.13;;;1.83;;
48925;SDS011;39838;59.938;30.642;2022-07-31T12:08:12;4.78;;;2.00;;
48925;SDS011;39838;59.938;30.642;2022-07-31T12:10:40;4.88;;;2.08;;
48925;SDS011;39838;59.938;30.642;2022-07-31T12:13:11;2.28;;;1.90;;
48925;SDS011;39838;59.938;30.642;2022-07-31T12:15:39;3.63;;;1.98;;
48925;SDS011;39838;59.938;30.642;2022-07-31T12:18:06;4.82;;;1.88;;
48925;SDS011;39838;59.938;30.642;2022-07-31T12:20:34;3.83;;;2.33;;
48925;SDS011;39838;59.938;30.642;2022-07-31T12:23:03;2.83;;;2.10;;
48925;SDS011;39838;59.938;30.642;2022-07-31T12:28:15;1.63;;;1.52;;
48925;SDS011;39838;59.938;30.642;2022-07-31T12:30:43;2.50;;;1.77;;
48925;SDS011;39838;59.938;30.642;2022-07-31T12:33:11;1.70;;;1.60;;
48925;SDS011;39838;59.938;30.642;2022-07-31T12:35:39;2.58;;;1.80;;
48925;SDS011;39838;59.938;30.642;2022-07-31T12:38:09;2.88;;;1.80;;
48925;SDS011;39838;59.938;30.642;2022-07-31T12:40:36;2.40;;;1.90;;
48925;SDS011;39838;59.938;30.642;2022-07-31T12:43:03;2.72;;;1.73;;
48925;SDS011;39838;59.938;30.642;2022-07-31T12:45:31;1.95;;;1.55;;
48925;SDS011;39838;59.938;30.642;2022-07-31T12:48:00;4.43;;;1.92;;
48925;SDS011;39838;59.938;30.642;2022-07-31T12:50:28;3.25;;;1.85;;
48925;SDS011;39838;59.938;30.642;2022-07-31T12:52:57;1.55;;;1.25;;
48925;SDS011;39838;59.938;30.642;2022-07-31T12:55:28;3.92;;;2.00;;
48925;SDS011;39838;59.938;30.642;2022-07-31T12:57:57;4.03;;;1.83;;
48925;SDS011;39838;59.938;30.642;2022-07-31T13:00:25;2.63;;;1.83;;
48925;SDS011;39838;59.938;30.642;2022-07-31T13:02:53;5.15;;;1.60;;
48925;SDS011;39838;59.938;30.642;2022-07-31T13:05:21;6.80;;;1.58;;
48925;SDS011;39838;59.938;30.642;2022-07-31T13:07:49;3.65;;;1.90;;
48925;SDS011;39838;59.938;30.642;2022-07-31T13:10:16;3.42;;;1.80;;
48925;SDS011;39838;59.938;30.642;2022-07-31T13:12:46;5.22;;;1.80;;
48925;SDS011;39838;59.938;30.642;2022-07-31T13:15:15;3.80;;;1.50;;
48925;SDS011;39838;59.938;30.642;2022-07-31T13:17:42;2.08;;;1.60;;
48925;SDS011;39838;59.938;30.642;2022-07-31T13:20:10;1.73;;;1.40;;
48925;SDS011;39838;59.938;30.642;2022-07-31T13:22:37;3.03;;;1.60;;
48925;SDS011;39838;59.938;30.642;2022-07-31T13:25:05;2.85;;;1.70;;
48925;SDS011;39838;59.938;30.642;2022-07-31T13:27:32;3.97;;;1.75;;
48925;SDS011;39838;59.938;30.642;2022-07-31T13:30:01;4.15;;;1.60;;
48925;SDS011;39838;59.938;30.642;2022-07-31T13:32:28;4.93;;;1.55;;
48925;SDS011;39838;59.938;30.642;2022-07-31T13:34:55;4.57;;;1.60;;
48925;SDS011;39838;59.938;30.642;2022-07-31T13:37:23;2.80;;;1.60;;
48925;SDS011;39838;59.938;30.642;2022-07-31T13:39:50;4.32;;;1.70;;
48925;SDS011;39838;59.938;30.642;2022-07-31T13:42:17;2.75;;;1.40;;
48925;SDS011;39838;59.938;30.642;2022-07-31T13:44:44;3.42;;;1.45;;
48925;SDS011;39838;59.938;30.642;2022-07-31T13:47:13;1.58;;;1.20;;
48925;SDS011;39838;59.938;30.642;2022-07-31T13:49:40;2.15;;;1.50;;
48925;SDS011;39838;59.938;30.642;2022-07-31T13:52:07;1.90;;;1.55;;
48925;SDS011;39838;59.938;30.642;2022-07-31T13:54:34;1.20;;;1.10;;
48925;SDS011;39838;59.938;30.642;2022-07-31T13:57:01;1.77;;;1.50;;
48925;SDS011;39838;59.938;30.642;2022-07-31T13:59:30;2.15;;;1.33;;
48925;SDS011;39838;59.938;30.642;2022-07-31T14:01:58;1.35;;;1.13;;
48925;SDS011;39838;59.938;30.642;2022-07-31T14:04:26;1.40;;;1.17;;
48925;SDS011;39838;59.938;30.642;2022-07-31T14:06:54;5.15;;;1.55;;
48925;SDS011;39838;59.938;30.642;2022-07-31T14:09:21;1.83;;;1.40;;
48925;SDS011;39838;59.938;30.642;2022-07-31T14:11:48;1.75;;;1.30;;
48925;SDS011;39838;59.938;30.642;2022-07-31T14:14:15;2.83;;;1.20;;
48925;SDS011;39838;59.938;30.642;2022-07-31T14:16:42;2.33;;;1.58;;
48925;SDS011;39838;59.938;30.642;2022-07-31T14:19:09;1.85;;;1.38;;
48925;SDS011;39838;59.938;30.642;2022-07-31T14:21:38;2.22;;;1.35;;
48925;SDS011;39838;59.938;30.642;2022-07-31T14:24:05;4.25;;;1.33;;
48925;SDS011;39838;59.938;30.642;2022-07-31T14:26:32;1.50;;;1.08;;
48925;SDS011;39838;59.938;30.642;2022-07-31T14:28:59;2.28;;;1.40;;
48925;SDS011;39838;59.938;30.642;2022-07-31T14:31:26;3.85;;;1.58;;
48925;SDS011;39838;59.938;30.642;2022-07-31T14:33:53;3.13;;;1.60;;
48925;SDS011;39838;59.938;30.642;2022-07-31T14:36:21;2.35;;;1.63;;
48925;SDS011;39838;59.938;30.642;2022-07-31T14:38:49;4.75;;;1.70;;
48925;SDS011;39838;59.938;30.642;2022-07-31T14:41:16;1.67;;;1.40;;
48925;SDS011;39838;59.938;30.642;2022-07-31T14:43:43;3.47;;;1.65;;
48925;SDS011;39838;59.938;30.642;2022-07-31T14:46:10;1.38;;;1.27;;